sensor_id;sensor_type;location;lat;lon;timestamp;temperature;humidity
73547;SHT30;61807;48.384;-4.386;2023-08-06T00:00:49;16.15;79.24
73547;SHT30;61807;48.384;-4.386;2023-08-06T00:03:15;16.12;79.34
73547;SHT30;61807;48.384;-4.386;2023-08-06T00:05:43;16.12;79.49
73547;SHT30;61807;48.384;-4.386;2023-08-06T00:08:08;16.06;79.54
73547;SHT30;61807;48.384;-4.386;2023-08-06T00:10:34;16.09;79.58
73547;SHT30;61807;48.384;-4.386;2023-08-06T00:12:59;16.09;79.67
73547;SHT30;61807;48.384;-4.386;2023-08-06T00:15:24;16.11;79.68
73547;SHT30;61807;48.384;-4.386;2023-08-06T00:17:50;16.08;79.62
73547;SHT30;61807;48.384;-4.386;2023-08-06T00:20:15;16.08;79.68
73547;SHT30;61807;48.384;-4.386;2023-08-06T00:22:41;16.09;79.68
73547;SHT30;61807;48.384;-4.386;2023-08-06T00:25:06;16.09;79.73
73547;SHT30;61807;48.384;-4.386;2023-08-06T00:27:32;16.06;79.71
73547;SHT30;61807;48.384;-4.386;2023-08-06T00:29:58;16.04;79.74
73547;SHT30;61807;48.384;-4.386;2023-08-06T00:32:23;16.05;79.76
73547;SHT30;61807;48.384;-4.386;2023-08-06T00:34:48;16.06;79.79
73547;SHT30;61807;48.384;-4.386;2023-08-06T00:37:17;16.06;79.92
73547;SHT30;61807;48.384;-4.386;2023-08-06T00:39:43;16.04;79.87
73547;SHT30;61807;48.384;-4.386;2023-08-06T00:42:09;16.05;79.90
73547;SHT30;61807;48.384;-4.386;2023-08-06T00:44:34;16.04;79.98
73547;SHT30;61807;48.384;-4.386;2023-08-06T00:47:01;16.02;80.01
73547;SHT30;61807;48.384;-4.386;2023-08-06T00:49:27;16.01;80.05
73547;SHT30;61807;48.384;-4.386;2023-08-06T00:51:52;16.06;80.06
73547;SHT30;61807;48.384;-4.386;2023-08-06T00:54:18;16.02;80.01
73547;SHT30;61807;48.384;-4.386;2023-08-06T00:56:43;16.04;80.00
73547;SHT30;61807;48.384;-4.386;2023-08-06T00:59:10;16.04;79.99
73547;SHT30;61807;48.384;-4.386;2023-08-06T01:01:37;16.04;80.05
73547;SHT30;61807;48.384;-4.386;2023-08-06T01:04:02;16.00;80.08
73547;SHT30;61807;48.384;-4.386;2023-08-06T01:06:47;16.02;80.19
73547;SHT30;61807;48.384;-4.386;2023-08-06T01:11:57;16.02;80.16
73547;SHT30;61807;48.384;-4.386;2023-08-06T01:14:32;16.05;80.11
73547;SHT30;61807;48.384;-4.386;2023-08-06T01:16:59;16.05;80.09
73547;SHT30;61807;48.384;-4.386;2023-08-06T01:19:25;16.02;80.15
73547;SHT30;61807;48.384;-4.386;2023-08-06T01:21:50;16.01;80.09
73547;SHT30;61807;48.384;-4.386;2023-08-06T01:24:16;16.01;80.14
73547;SHT30;61807;48.384;-4.386;2023-08-06T01:26:45;16.01;80.15
73547;SHT30;61807;48.384;-4.386;2023-08-06T01:31:48;16.01;80.15
73547;SHT30;61807;48.384;-4.386;2023-08-06T01:34:28;15.98;80.32
73547;SHT30;61807;48.384;-4.386;2023-08-06T01:36:53;16.00;80.22
73547;SHT30;61807;48.384;-4.386;2023-08-06T01:39:19;15.98;80.19
73547;SHT30;61807;48.384;-4.386;2023-08-06T01:41:47;15.97;80.25
73547;SHT30;61807;48.384;-4.386;2023-08-06T01:44:12;15.95;80.26
73547;SHT30;61807;48.384;-4.386;2023-08-06T01:46:38;15.93;80.26
73547;SHT30;61807;48.384;-4.386;2023-08-06T01:49:03;15.94;80.32
73547;SHT30;61807;48.384;-4.386;2023-08-06T01:51:29;15.91;80.29
73547;SHT30;61807;48.384;-4.386;2023-08-06T01:53:54;15.94;80.27
73547;SHT30;61807;48.384;-4.386;2023-08-06T01:56:20;15.90;80.30
73547;SHT30;61807;48.384;-4.386;2023-08-06T01:58:45;15.88;80.28
73547;SHT30;61807;48.384;-4.386;2023-08-06T02:01:10;15.88;80.22
73547;SHT30;61807;48.384;-4.386;2023-08-06T02:03:36;15.87;80.33
73547;SHT30;61807;48.384;-4.386;2023-08-06T02:06:02;15.87;80.34
73547;SHT30;61807;48.384;-4.386;2023-08-06T02:08:27;15.91;80.34
73547;SHT30;61807;48.384;-4.386;2023-08-06T02:10:52;15.91;80.33
73547;SHT30;61807;48.384;-4.386;2023-08-06T02:13:18;15.84;80.40
73547;SHT30;61807;48.384;-4.386;2023-08-06T02:15:44;15.87;80.45
73547;SHT30;61807;48.384;-4.386;2023-08-06T02:18:12;15.83;80.45
73547;SHT30;61807;48.384;-4.386;2023-08-06T02:20:37;15.85;80.42
73547;SHT30;61807;48.384;-4.386;2023-08-06T02:23:03;15.81;80.44
73547;SHT30;61807;48.384;-4.386;2023-08-06T02:25:28;15.81;80.51
73547;SHT30;61807;48.384;-4.386;2023-08-06T02:27:54;15.83;80.50
73547;SHT30;61807;48.384;-4.386;2023-08-06T02:30:19;15.83;80.54
73547;SHT30;61807;48.384;-4.386;2023-08-06T02:32:44;15.80;80.54
73547;SHT30;61807;48.384;-4.386;2023-08-06T02:35:10;15.77;80.58
73547;SHT30;61807;48.384;-4.386;2023-08-06T02:37:35;15.73;80.61
73547;SHT30;61807;48.384;-4.386;2023-08-06T02:40:01;15.75;80.68
73547;SHT30;61807;48.384;-4.386;2023-08-06T02:42:26;15.75;80.67
73547;SHT30;61807;48.384;-4.386;2023-08-06T02:44:52;15.74;80.69
73547;SHT30;61807;48.384;-4.386;2023-08-06T02:47:20;15.73;80.73
73547;SHT30;61807;48.384;-4.386;2023-08-06T02:49:45;15.71;80.82
73547;SHT30;61807;48.384;-4.386;2023-08-06T02:52:11;15.68;80.86
73547;SHT30;61807;48.384;-4.386;2023-08-06T02:54:36;15.65;80.85
73547;SHT30;61807;48.384;-4.386;2023-08-06T02:57:02;15.67;80.89
73547;SHT30;61807;48.384;-4.386;2023-08-06T02:59:27;15.68;80.82
73547;SHT30;61807;48.384;-4.386;2023-08-06T03:01:52;15.63;80.90
73547;SHT30;61807;48.384;-4.386;2023-08-06T03:04:18;15.64;80.91
73547;SHT30;61807;48.384;-4.386;2023-08-06T03:06:43;15.67;80.92
73547;SHT30;61807;48.384;-4.386;2023-08-06T03:09:09;15.65;80.83
73547;SHT30;61807;48.384;-4.386;2023-08-06T03:11:34;15.65;80.85
73547;SHT30;61807;48.384;-4.386;2023-08-06T03:13:59;15.65;80.78
73547;SHT30;61807;48.384;-4.386;2023-08-06T03:16:25;15.64;80.80
73547;SHT30;61807;48.384;-4.386;2023-08-06T03:18:50;15.61;80.85
73547;SHT30;61807;48.384;-4.386;2023-08-06T03:21:15;15.63;80.86
73547;SHT30;61807;48.384;-4.386;2023-08-06T03:23:41;15.64;80.82
73547;SHT30;61807;48.384;-4.386;2023-08-06T03:26:06;15.65;80.83
73547;SHT30;61807;48.384;-4.386;2023-08-06T03:28:31;15.65;80.79
73547;SHT30;61807;48.384;-4.386;2023-08-06T03:31:03;15.67;80.80
73547;SHT30;61807;48.384;-4.386;2023-08-06T03:33:29;15.67;80.85
73547;SHT30;61807;48.384;-4.386;2023-08-06T03:35:55;15.65;80.87
73547;SHT30;61807;48.384;-4.386;2023-08-06T03:38:20;15.70;80.91
73547;SHT30;61807;48.384;-4.386;2023-08-06T03:40:46;15.68;80.79
73547;SHT30;61807;48.384;-4.386;2023-08-06T03:43:12;15.65;80.87
73547;SHT30;61807;48.384;-4.386;2023-08-06T03:45:37;15.65;80.95
73547;SHT30;61807;48.384;-4.386;2023-08-06T03:48:02;15.65;80.97
73547;SHT30;61807;48.384;-4.386;2023-08-06T03:50:28;15.67;80.95
73547;SHT30;61807;48.384;-4.386;2023-08-06T03:52:53;15.65;80.98
73547;SHT30;61807;48.384;-4.386;2023-08-06T03:55:19;15.64;81.06
73547;SHT30;61807;48.384;-4.386;2023-08-06T03:57:44;15.63;81.05
73547;SHT30;61807;48.384;-4.386;2023-08-06T04:00:10;15.63;81.12
73547;SHT30;61807;48.384;-4.386;2023-08-06T04:02:35;15.64;81.15
73547;SHT30;61807;48.384;-4.386;2023-08-06T04:05:01;15.67;81.17
73547;SHT30;61807;48.384;-4.386;2023-08-06T04:07:26;15.67;81.24
73547;SHT30;61807;48.384;-4.386;2023-08-06T04:09:57;15.70;81.25
73547;SHT30;61807;48.384;-4.386;2023-08-06T04:12:23;15.73;81.24
73547;SHT30;61807;48.384;-4.386;2023-08-06T04:14:50;15.73;81.26
73547;SHT30;61807;48.384;-4.386;2023-08-06T04:17:16;15.74;81.29
73547;SHT30;61807;48.384;-4.386;2023-08-06T04:19:41;15.77;81.30
73547;SHT30;61807;48.384;-4.386;2023-08-06T04:22:06;15.78;81.33
73547;SHT30;61807;48.384;-4.386;2023-08-06T04:24:32;15.78;81.33
73547;SHT30;61807;48.384;-4.386;2023-08-06T04:26:57;15.80;81.42
73547;SHT30;61807;48.384;-4.386;2023-08-06T04:29:23;15.81;81.47
73547;SHT30;61807;48.384;-4.386;2023-08-06T04:31:48;15.84;81.45
73547;SHT30;61807;48.384;-4.386;2023-08-06T04:34:13;15.88;81.40
73547;SHT30;61807;48.384;-4.386;2023-08-06T04:36:39;15.88;81.42
73547;SHT30;61807;48.384;-4.386;2023-08-06T04:39:04;15.93;81.41
73547;SHT30;61807;48.384;-4.386;2023-08-06T04:41:29;15.90;81.41
73547;SHT30;61807;48.384;-4.386;2023-08-06T04:43:56;15.93;81.42
73547;SHT30;61807;48.384;-4.386;2023-08-06T04:46:22;15.90;81.47
73547;SHT30;61807;48.384;-4.386;2023-08-06T04:48:47;15.88;81.51
73547;SHT30;61807;48.384;-4.386;2023-08-06T04:51:12;15.88;81.51
73547;SHT30;61807;48.384;-4.386;2023-08-06T04:53:38;15.90;81.55
73547;SHT30;61807;48.384;-4.386;2023-08-06T04:56:03;15.90;81.57
73547;SHT30;61807;48.384;-4.386;2023-08-06T04:58:29;15.91;81.59
73547;SHT30;61807;48.384;-4.386;2023-08-06T05:00:54;15.90;81.66
73547;SHT30;61807;48.384;-4.386;2023-08-06T05:03:20;15.88;81.67
73547;SHT30;61807;48.384;-4.386;2023-08-06T05:05:46;15.93;81.76
73547;SHT30;61807;48.384;-4.386;2023-08-06T05:08:15;15.91;81.76
73547;SHT30;61807;48.384;-4.386;2023-08-06T05:10:45;15.91;81.72
73547;SHT30;61807;48.384;-4.386;2023-08-06T05:13:11;15.93;81.72
73547;SHT30;61807;48.384;-4.386;2023-08-06T05:15:36;15.93;81.81
73547;SHT30;61807;48.384;-4.386;2023-08-06T05:18:02;15.93;81.82
73547;SHT30;61807;48.384;-4.386;2023-08-06T05:20:27;15.94;81.82
73547;SHT30;61807;48.384;-4.386;2023-08-06T05:22:52;15.97;81.86
73547;SHT30;61807;48.384;-4.386;2023-08-06T05:25:18;15.97;81.87
73547;SHT30;61807;48.384;-4.386;2023-08-06T05:27:43;15.94;81.81
73547;SHT30;61807;48.384;-4.386;2023-08-06T05:30:09;15.93;81.84
73547;SHT30;61807;48.384;-4.386;2023-08-06T05:32:35;15.97;81.79
73547;SHT30;61807;48.384;-4.386;2023-08-06T05:35:00;15.94;81.75
73547;SHT30;61807;48.384;-4.386;2023-08-06T05:37:26;15.97;81.67
73547;SHT30;61807;48.384;-4.386;2023-08-06T05:39:51;15.97;81.70
73547;SHT30;61807;48.384;-4.386;2023-08-06T05:42:16;15.94;81.66
73547;SHT30;61807;48.384;-4.386;2023-08-06T05:44:42;15.94;81.60
73547;SHT30;61807;48.384;-4.386;2023-08-06T05:47:07;15.94;81.61
73547;SHT30;61807;48.384;-4.386;2023-08-06T05:49:33;15.97;81.61
73547;SHT30;61807;48.384;-4.386;2023-08-06T05:51:58;15.98;81.58
73547;SHT30;61807;48.384;-4.386;2023-08-06T05:54:24;16.01;81.61
73547;SHT30;61807;48.384;-4.386;2023-08-06T05:56:50;16.04;81.76
73547;SHT30;61807;48.384;-4.386;2023-08-06T05:59:15;16.04;81.84
73547;SHT30;61807;48.384;-4.386;2023-08-06T06:01:40;16.11;81.90
73547;SHT30;61807;48.384;-4.386;2023-08-06T06:04:06;16.15;81.85
73547;SHT30;61807;48.384;-4.386;2023-08-06T06:06:31;16.16;81.92
73547;SHT30;61807;48.384;-4.386;2023-08-06T06:08:57;16.24;81.96
73547;SHT30;61807;48.384;-4.386;2023-08-06T06:11:22;16.29;82.03
73547;SHT30;61807;48.384;-4.386;2023-08-06T06:13:50;16.38;81.99
73547;SHT30;61807;48.384;-4.386;2023-08-06T06:16:16;16.43;81.90
73547;SHT30;61807;48.384;-4.386;2023-08-06T06:18:41;16.46;81.85
73547;SHT30;61807;48.384;-4.386;2023-08-06T06:21:07;16.49;81.84
73547;SHT30;61807;48.384;-4.386;2023-08-06T06:23:32;16.53;81.75
73547;SHT30;61807;48.384;-4.386;2023-08-06T06:25:59;16.60;81.75
73547;SHT30;61807;48.384;-4.386;2023-08-06T06:28:24;16.66;81.72
73547;SHT30;61807;48.384;-4.386;2023-08-06T06:30:51;16.70;81.66
73547;SHT30;61807;48.384;-4.386;2023-08-06T06:33:16;16.72;81.63
73547;SHT30;61807;48.384;-4.386;2023-08-06T06:35:42;16.73;81.53
73547;SHT30;61807;48.384;-4.386;2023-08-06T06:38:07;16.76;81.45
73547;SHT30;61807;48.384;-4.386;2023-08-06T06:40:33;16.76;81.47
73547;SHT30;61807;48.384;-4.386;2023-08-06T06:42:58;16.76;81.41
73547;SHT30;61807;48.384;-4.386;2023-08-06T06:45:23;16.85;81.64
73547;SHT30;61807;48.384;-4.386;2023-08-06T06:47:49;16.93;81.49
73547;SHT30;61807;48.384;-4.386;2023-08-06T06:50:14;17.00;81.34
73547;SHT30;61807;48.384;-4.386;2023-08-06T06:52:41;17.01;81.31
73547;SHT30;61807;48.384;-4.386;2023-08-06T06:55:07;17.03;81.08
73547;SHT30;61807;48.384;-4.386;2023-08-06T06:57:32;17.04;81.21
73547;SHT30;61807;48.384;-4.386;2023-08-06T06:59:58;17.07;81.13
73547;SHT30;61807;48.384;-4.386;2023-08-06T07:02:23;17.10;81.10
73547;SHT30;61807;48.384;-4.386;2023-08-06T07:04:49;17.15;81.01
73547;SHT30;61807;48.384;-4.386;2023-08-06T07:07:15;17.21;80.92
73547;SHT30;61807;48.384;-4.386;2023-08-06T07:09:40;17.21;80.85
73547;SHT30;61807;48.384;-4.386;2023-08-06T07:12:06;17.20;80.84
73547;SHT30;61807;48.384;-4.386;2023-08-06T07:14:31;17.20;80.83
73547;SHT30;61807;48.384;-4.386;2023-08-06T07:16:57;17.20;80.73
73547;SHT30;61807;48.384;-4.386;2023-08-06T07:19:23;17.22;80.73
73547;SHT30;61807;48.384;-4.386;2023-08-06T07:21:48;17.28;80.79
73547;SHT30;61807;48.384;-4.386;2023-08-06T07:24:14;17.39;80.64
73547;SHT30;61807;48.384;-4.386;2023-08-06T07:26:39;17.46;80.62
73547;SHT30;61807;48.384;-4.386;2023-08-06T07:29:04;17.55;80.40
73547;SHT30;61807;48.384;-4.386;2023-08-06T07:31:30;17.63;80.35
73547;SHT30;61807;48.384;-4.386;2023-08-06T07:33:55;17.69;80.27
73547;SHT30;61807;48.384;-4.386;2023-08-06T07:36:21;17.75;80.10
73547;SHT30;61807;48.384;-4.386;2023-08-06T07:38:46;17.79;79.76
73547;SHT30;61807;48.384;-4.386;2023-08-06T07:41:13;17.82;79.61
73547;SHT30;61807;48.384;-4.386;2023-08-06T07:43:39;17.87;79.41
73547;SHT30;61807;48.384;-4.386;2023-08-06T07:46:04;17.83;78.95
73547;SHT30;61807;48.384;-4.386;2023-08-06T07:48:30;17.80;79.03
73547;SHT30;61807;48.384;-4.386;2023-08-06T07:50:56;17.83;79.02
73547;SHT30;61807;48.384;-4.386;2023-08-06T07:53:23;17.78;78.75
73547;SHT30;61807;48.384;-4.386;2023-08-06T07:55:52;17.75;78.65
73547;SHT30;61807;48.384;-4.386;2023-08-06T07:58:18;17.72;78.68
73547;SHT30;61807;48.384;-4.386;2023-08-06T08:00:43;17.78;78.78
73547;SHT30;61807;48.384;-4.386;2023-08-06T08:03:14;17.87;78.56
73547;SHT30;61807;48.384;-4.386;2023-08-06T08:05:40;18.04;78.50
73547;SHT30;61807;48.384;-4.386;2023-08-06T08:08:06;18.10;78.24
73547;SHT30;61807;48.384;-4.386;2023-08-06T08:10:32;18.14;77.77
73547;SHT30;61807;48.384;-4.386;2023-08-06T08:12:58;18.16;77.73
73547;SHT30;61807;48.384;-4.386;2023-08-06T08:15:24;18.18;77.61
73547;SHT30;61807;48.384;-4.386;2023-08-06T08:17:53;18.20;77.23
73547;SHT30;61807;48.384;-4.386;2023-08-06T08:20:19;18.20;77.05
73547;SHT30;61807;48.384;-4.386;2023-08-06T08:22:44;18.23;76.43
73547;SHT30;61807;48.384;-4.386;2023-08-06T08:25:10;18.17;76.19
73547;SHT30;61807;48.384;-4.386;2023-08-06T08:27:35;18.13;76.03
73547;SHT30;61807;48.384;-4.386;2023-08-06T08:30:00;18.13;76.15
73547;SHT30;61807;48.384;-4.386;2023-08-06T08:32:26;18.13;75.75
73547;SHT30;61807;48.384;-4.386;2023-08-06T08:34:51;18.28;75.87
73547;SHT30;61807;48.384;-4.386;2023-08-06T08:37:16;18.44;75.27
73547;SHT30;61807;48.384;-4.386;2023-08-06T08:39:42;18.54;74.90
73547;SHT30;61807;48.384;-4.386;2023-08-06T08:42:09;18.58;74.51
73547;SHT30;61807;48.384;-4.386;2023-08-06T08:44:35;18.69;74.89
73547;SHT30;61807;48.384;-4.386;2023-08-06T08:47:05;18.78;74.92
73547;SHT30;61807;48.384;-4.386;2023-08-06T08:49:31;18.91;74.86
73547;SHT30;61807;48.384;-4.386;2023-08-06T08:51:59;19.15;74.68
73547;SHT30;61807;48.384;-4.386;2023-08-06T08:54:27;19.26;74.09
73547;SHT30;61807;48.384;-4.386;2023-08-06T08:56:53;19.22;73.95
73547;SHT30;61807;48.384;-4.386;2023-08-06T08:59:20;19.16;73.73
73547;SHT30;61807;48.384;-4.386;2023-08-06T09:01:47;19.10;73.95
73547;SHT30;61807;48.384;-4.386;2023-08-06T09:04:17;19.05;73.82
73547;SHT30;61807;48.384;-4.386;2023-08-06T09:06:43;18.99;73.58
73547;SHT30;61807;48.384;-4.386;2023-08-06T09:09:20;18.99;73.76
73547;SHT30;61807;48.384;-4.386;2023-08-06T09:11:48;19.05;73.40
73547;SHT30;61807;48.384;-4.386;2023-08-06T09:14:14;19.08;73.60
73547;SHT30;61807;48.384;-4.386;2023-08-06T09:16:40;19.29;73.55
73547;SHT30;61807;48.384;-4.386;2023-08-06T09:19:12;19.38;72.69
73547;SHT30;61807;48.384;-4.386;2023-08-06T09:21:42;19.45;72.31
73547;SHT30;61807;48.384;-4.386;2023-08-06T09:24:11;19.53;72.58
73547;SHT30;61807;48.384;-4.386;2023-08-06T09:26:38;19.63;72.63
73547;SHT30;61807;48.384;-4.386;2023-08-06T09:29:08;19.89;72.33
73547;SHT30;61807;48.384;-4.386;2023-08-06T09:31:49;19.98;70.94
73547;SHT30;61807;48.384;-4.386;2023-08-06T09:34:21;19.88;71.29
73547;SHT30;61807;48.384;-4.386;2023-08-06T09:36:51;20.22;70.93
73547;SHT30;61807;48.384;-4.386;2023-08-06T09:39:18;20.74;70.14
73547;SHT30;61807;48.384;-4.386;2023-08-06T09:41:44;21.30;69.28
73547;SHT30;61807;48.384;-4.386;2023-08-06T09:44:21;21.49;68.40
73547;SHT30;61807;48.384;-4.386;2023-08-06T09:46:56;21.31;68.56
73547;SHT30;61807;48.384;-4.386;2023-08-06T09:49:26;21.04;68.28
73547;SHT30;61807;48.384;-4.386;2023-08-06T09:51:52;21.11;68.85
73547;SHT30;61807;48.384;-4.386;2023-08-06T09:54:22;21.10;67.90
73547;SHT30;61807;48.384;-4.386;2023-08-06T09:56:48;20.93;68.48
73547;SHT30;61807;48.384;-4.386;2023-08-06T09:59:14;20.88;68.29
73547;SHT30;61807;48.384;-4.386;2023-08-06T10:01:41;20.93;68.66
73547;SHT30;61807;48.384;-4.386;2023-08-06T10:04:07;21.17;68.33
73547;SHT30;61807;48.384;-4.386;2023-08-06T10:06:37;21.43;67.45
73547;SHT30;61807;48.384;-4.386;2023-08-06T10:09:04;21.76;67.07
73547;SHT30;61807;48.384;-4.386;2023-08-06T10:11:30;22.04;65.71
73547;SHT30;61807;48.384;-4.386;2023-08-06T10:14:06;22.25;64.80
73547;SHT30;61807;48.384;-4.386;2023-08-06T10:16:34;22.31;63.88
73547;SHT30;61807;48.384;-4.386;2023-08-06T10:19:03;22.17;64.41
73547;SHT30;61807;48.384;-4.386;2023-08-06T10:21:31;22.25;64.77
73547;SHT30;61807;48.384;-4.386;2023-08-06T10:23:56;22.31;65.01
73547;SHT30;61807;48.384;-4.386;2023-08-06T10:26:27;22.20;64.41
73547;SHT30;61807;48.384;-4.386;2023-08-06T10:28:52;22.13;63.53
73547;SHT30;61807;48.384;-4.386;2023-08-06T10:31:18;21.92;63.44
73547;SHT30;61807;48.384;-4.386;2023-08-06T10:33:47;21.65;63.20
73547;SHT30;61807;48.384;-4.386;2023-08-06T10:36:14;21.34;63.70
73547;SHT30;61807;48.384;-4.386;2023-08-06T10:38:50;21.08;64.06
73547;SHT30;61807;48.384;-4.386;2023-08-06T10:41:29;21.00;65.12
73547;SHT30;61807;48.384;-4.386;2023-08-06T10:44:07;21.04;65.54
73547;SHT30;61807;48.384;-4.386;2023-08-06T10:46:33;21.10;65.31
73547;SHT30;61807;48.384;-4.386;2023-08-06T10:48:59;21.08;64.92
73547;SHT30;61807;48.384;-4.386;2023-08-06T10:51:24;21.05;65.38
73547;SHT30;61807;48.384;-4.386;2023-08-06T10:53:51;21.04;65.21
73547;SHT30;61807;48.384;-4.386;2023-08-06T10:56:18;21.03;65.39
73547;SHT30;61807;48.384;-4.386;2023-08-06T10:58:47;20.90;64.88
73547;SHT30;61807;48.384;-4.386;2023-08-06T11:01:13;20.83;65.05
73547;SHT30;61807;48.384;-4.386;2023-08-06T11:03:43;20.84;64.54
73547;SHT30;61807;48.384;-4.386;2023-08-06T11:06:09;20.88;65.05
73547;SHT30;61807;48.384;-4.386;2023-08-06T11:08:40;20.98;65.10
73547;SHT30;61807;48.384;-4.386;2023-08-06T11:13:36;21.08;64.17
73547;SHT30;61807;48.384;-4.386;2023-08-06T11:16:02;21.07;64.48
73547;SHT30;61807;48.384;-4.386;2023-08-06T11:18:28;20.97;64.08
73547;SHT30;61807;48.384;-4.386;2023-08-06T11:20:54;20.85;64.19
73547;SHT30;61807;48.384;-4.386;2023-08-06T11:23:19;20.77;64.14
73547;SHT30;61807;48.384;-4.386;2023-08-06T11:25:45;20.74;63.90
73547;SHT30;61807;48.384;-4.386;2023-08-06T11:28:11;20.72;64.57
73547;SHT30;61807;48.384;-4.386;2023-08-06T11:30:37;20.62;64.24
73547;SHT30;61807;48.384;-4.386;2023-08-06T11:33:03;20.56;64.72
73547;SHT30;61807;48.384;-4.386;2023-08-06T11:35:28;20.57;65.28
73547;SHT30;61807;48.384;-4.386;2023-08-06T11:37:54;20.62;65.35
73547;SHT30;61807;48.384;-4.386;2023-08-06T11:40:20;20.64;65.19
73547;SHT30;61807;48.384;-4.386;2023-08-06T11:42:46;20.72;65.37
73547;SHT30;61807;48.384;-4.386;2023-08-06T11:45:12;20.88;65.54
73547;SHT30;61807;48.384;-4.386;2023-08-06T11:47:40;21.21;64.66
73547;SHT30;61807;48.384;-4.386;2023-08-06T11:50:06;21.35;64.30
73547;SHT30;61807;48.384;-4.386;2023-08-06T11:52:32;21.38;64.40
73547;SHT30;61807;48.384;-4.386;2023-08-06T11:57:36;22.04;63.43
73547;SHT30;61807;48.384;-4.386;2023-08-06T12:02:32;22.17;62.52
73547;SHT30;61807;48.384;-4.386;2023-08-06T12:05:00;21.93;62.66
73547;SHT30;61807;48.384;-4.386;2023-08-06T12:07:29;21.66;62.55
73547;SHT30;61807;48.384;-4.386;2023-08-06T12:09:55;21.85;62.60
73547;SHT30;61807;48.384;-4.386;2023-08-06T12:12:21;22.37;62.50
73547;SHT30;61807;48.384;-4.386;2023-08-06T12:14:46;22.96;60.70
73547;SHT30;61807;48.384;-4.386;2023-08-06T12:17:12;23.39;59.79
73547;SHT30;61807;48.384;-4.386;2023-08-06T12:19:37;23.26;60.48
73547;SHT30;61807;48.384;-4.386;2023-08-06T12:22:03;23.00;60.58
73547;SHT30;61807;48.384;-4.386;2023-08-06T12:24:29;22.87;61.23
73547;SHT30;61807;48.384;-4.386;2023-08-06T12:26:57;22.57;61.34
73547;SHT30;61807;48.384;-4.386;2023-08-06T12:29:23;22.30;61.65
73547;SHT30;61807;48.384;-4.386;2023-08-06T12:31:48;22.21;62.00
73547;SHT30;61807;48.384;-4.386;2023-08-06T12:34:14;22.58;61.85
73547;SHT30;61807;48.384;-4.386;2023-08-06T12:36:39;23.00;60.72
73547;SHT30;61807;48.384;-4.386;2023-08-06T12:39:04;23.13;60.99
73547;SHT30;61807;48.384;-4.386;2023-08-06T12:41:30;23.73;60.22
73547;SHT30;61807;48.384;-4.386;2023-08-06T12:43:55;24.37;58.30
73547;SHT30;61807;48.384;-4.386;2023-08-06T12:46:21;24.95;56.91
73547;SHT30;61807;48.384;-4.386;2023-08-06T12:48:46;25.51;56.40
73547;SHT30;61807;48.384;-4.386;2023-08-06T12:51:13;26.03;55.77
73547;SHT30;61807;48.384;-4.386;2023-08-06T12:53:39;26.37;54.64
73547;SHT30;61807;48.384;-4.386;2023-08-06T12:56:04;26.26;53.30
73547;SHT30;61807;48.384;-4.386;2023-08-06T12:58:30;25.86;54.04
73547;SHT30;61807;48.384;-4.386;2023-08-06T13:00:56;26.00;54.45
73547;SHT30;61807;48.384;-4.386;2023-08-06T13:03:21;25.89;54.07
73547;SHT30;61807;48.384;-4.386;2023-08-06T13:05:47;25.51;55.06
73547;SHT30;61807;48.384;-4.386;2023-08-06T13:08:12;25.25;55.12
73547;SHT30;61807;48.384;-4.386;2023-08-06T13:10:37;25.35;55.91
73547;SHT30;61807;48.384;-4.386;2023-08-06T13:13:03;25.79;55.23
73547;SHT30;61807;48.384;-4.386;2023-08-06T13:15:29;25.96;54.85
73547;SHT30;61807;48.384;-4.386;2023-08-06T13:17:54;25.53;53.96
73547;SHT30;61807;48.384;-4.386;2023-08-06T13:20:20;25.14;55.20
73547;SHT30;61807;48.384;-4.386;2023-08-06T13:22:46;25.57;55.35
73547;SHT30;61807;48.384;-4.386;2023-08-06T13:25:12;25.88;53.76
73547;SHT30;61807;48.384;-4.386;2023-08-06T13:27:40;25.83;53.30
73547;SHT30;61807;48.384;-4.386;2023-08-06T13:30:06;25.79;53.92
73547;SHT30;61807;48.384;-4.386;2023-08-06T13:32:32;25.55;54.58
73547;SHT30;61807;48.384;-4.386;2023-08-06T13:34:59;25.71;53.96
73547;SHT30;61807;48.384;-4.386;2023-08-06T13:37:24;25.44;54.26
73547;SHT30;61807;48.384;-4.386;2023-08-06T13:39:49;25.41;55.25
73547;SHT30;61807;48.384;-4.386;2023-08-06T13:42:15;25.94;54.61
73547;SHT30;61807;48.384;-4.386;2023-08-06T13:44:40;26.36;53.90
73547;SHT30;61807;48.384;-4.386;2023-08-06T13:47:05;26.37;52.96
73547;SHT30;61807;48.384;-4.386;2023-08-06T13:49:31;25.83;52.91
73547;SHT30;61807;48.384;-4.386;2023-08-06T13:51:56;25.18;53.56
73547;SHT30;61807;48.384;-4.386;2023-08-06T13:54:21;24.66;54.62
73547;SHT30;61807;48.384;-4.386;2023-08-06T13:56:47;24.35;55.29
73547;SHT30;61807;48.384;-4.386;2023-08-06T13:59:12;24.42;55.09
73547;SHT30;61807;48.384;-4.386;2023-08-06T14:01:39;24.40;55.51
73547;SHT30;61807;48.384;-4.386;2023-08-06T14:04:04;24.15;55.76
73547;SHT30;61807;48.384;-4.386;2023-08-06T14:06:30;24.30;56.21
73547;SHT30;61807;48.384;-4.386;2023-08-06T14:08:56;24.52;55.21
73547;SHT30;61807;48.384;-4.386;2023-08-06T14:11:22;24.21;55.32
73547;SHT30;61807;48.384;-4.386;2023-08-06T14:13:47;23.87;56.31
73547;SHT30;61807;48.384;-4.386;2023-08-06T14:16:12;23.63;56.43
73547;SHT30;61807;48.384;-4.386;2023-08-06T14:18:38;23.50;56.63
73547;SHT30;61807;48.384;-4.386;2023-08-06T14:21:04;23.84;57.25
73547;SHT30;61807;48.384;-4.386;2023-08-06T14:23:29;23.93;56.70
73547;SHT30;61807;48.384;-4.386;2023-08-06T14:25:55;24.28;56.64
73547;SHT30;61807;48.384;-4.386;2023-08-06T14:28:20;24.67;55.47
73547;SHT30;61807;48.384;-4.386;2023-08-06T14:30:45;24.79;55.19
73547;SHT30;61807;48.384;-4.386;2023-08-06T14:33:11;24.59;54.72
73547;SHT30;61807;48.384;-4.386;2023-08-06T14:35:36;24.16;54.88
73547;SHT30;61807;48.384;-4.386;2023-08-06T14:38:01;23.75;55.85
73547;SHT30;61807;48.384;-4.386;2023-08-06T14:40:27;23.45;56.53
73547;SHT30;61807;48.384;-4.386;2023-08-06T14:42:59;23.19;57.17
73547;SHT30;61807;48.384;-4.386;2023-08-06T14:45:24;23.02;57.60
73547;SHT30;61807;48.384;-4.386;2023-08-06T14:47:49;23.10;57.72
73547;SHT30;61807;48.384;-4.386;2023-08-06T14:50:15;23.45;57.68
73547;SHT30;61807;48.384;-4.386;2023-08-06T14:52:40;23.63;56.67
73547;SHT30;61807;48.384;-4.386;2023-08-06T14:55:06;23.51;56.58
73547;SHT30;61807;48.384;-4.386;2023-08-06T14:57:32;23.60;57.13
73547;SHT30;61807;48.384;-4.386;2023-08-06T14:59:57;23.78;56.64
73547;SHT30;61807;48.384;-4.386;2023-08-06T15:02:23;23.94;55.99
73547;SHT30;61807;48.384;-4.386;2023-08-06T15:04:48;24.19;55.96
73547;SHT30;61807;48.384;-4.386;2023-08-06T15:07:13;24.39;56.06
73547;SHT30;61807;48.384;-4.386;2023-08-06T15:09:39;24.52;55.70
73547;SHT30;61807;48.384;-4.386;2023-08-06T15:12:04;24.60;55.43
73547;SHT30;61807;48.384;-4.386;2023-08-06T15:14:30;24.64;55.22
73547;SHT30;61807;48.384;-4.386;2023-08-06T15:16:55;24.55;54.65
73547;SHT30;61807;48.384;-4.386;2023-08-06T15:19:23;24.49;54.88
73547;SHT30;61807;48.384;-4.386;2023-08-06T15:21:48;24.53;54.09